Time;durP1;ratioP1;P1;durP2;ratioP2;P2;SDS_P1;SDS_P2;PMS_P1;PMS_P2;Temp;Humidity;BMP_temperature;BMP_pressure;BME280_temperature;BME280_humidity;BME280_pressure;Samples;Min_cycle;Max_cycle;Signal;HPM_P1;HPM_P2
2022/06/10 00:00:34;;;;;;;10.95;9.10;;;;;;;17.54;98.80;98878.84;1817610;79;20963;-51
2022/06/10 00:03:00;;;;;;;13.43;9.75;;;;;;;17.55;99.56;98885.81;1817593;79;21468;-48
2022/06/10 00:05:30;;;;;;;11.43;8.23;;;;;;;17.57;98.91;98890.03;1817536;79;20990;-51
2022/06/10 00:07:57;;;;;;;19.20;9.35;;;;;;;17.59;99.94;98888.07;1817592;79;21484;-53
2022/06/10 00:10:26;;;;;;;13.83;9.43;;;;;;;17.59;99.85;98888.07;1817751;79;20987;-51
2022/06/10 00:12:53;;;;;;;11.85;8.13;;;;;;;17.59;99.28;98893.86;1817499;79;20999;-47
2022/06/10 00:15:19;;;;;;;9.43;8.33;;;;;;;17.57;98.92;98894.48;1817505;79;20955;-48
2022/06/10 00:17:45;;;;;;;15.37;8.30;;;;;;;17.56;98.89;98891.50;1817736;79;21002;-50
2022/06/10 00:20:15;;;;;;;10.05;8.45;;;;;;;17.54;99.03;98892.12;1817397;79;20995;-50
2022/06/10 00:22:42;;;;;;;10.40;7.80;;;;;;;17.53;99.42;98895.26;1817429;79;20948;-48
2022/06/10 00:25:08;;;;;;;12.28;9.38;;;;;;;17.50;99.56;98891.56;1817774;79;21038;-51
2022/06/10 00:27:35;;;;;;;14.30;8.25;;;;;;;17.53;99.24;98906.39;1817722;79;21046;-48
2022/06/10 00:30:01;;;;;;;9.43;7.97;;;;;;;17.53;99.31;98913.03;1817442;79;20971;-48
2022/06/10 00:32:27;;;;;;;12.63;7.58;;;;;;;17.56;98.85;98921.58;1816686;79;21038;-49
2022/06/10 00:34:53;;;;;;;11.83;8.03;;;;;;;17.58;99.63;98931.58;1816129;79;21022;-51
2022/06/10 00:37:19;;;;;;;12.73;8.20;;;;;;;17.59;99.35;98935.06;1816252;79;21510;-48
2022/06/10 00:39:44;;;;;;;10.13;8.73;;;;;;;17.59;98.95;98937.26;1816314;79;21022;-48
2022/06/10 00:42:12;;;;;;;13.20;8.40;;;;;;;17.64;98.37;98939.02;1817040;79;20996;-45
2022/06/10 00:44:45;;;;;;;12.05;8.33;;;;;;;17.62;97.62;98940.95;1817636;79;21484;-51
2022/06/10 00:47:29;;;;;;;10.28;8.38;;;;;;;17.64;97.51;98939.48;1815854;79;20951;-50
2022/06/10 00:50:15;;;;;;;12.75;9.15;;;;;;;17.65;97.54;98949.16;1801289;79;21022;-47
2022/06/10 00:52:47;;;;;;;9.45;8.25;;;;;;;17.64;97.93;98941.67;1807356;78;21038;-47
2022/06/10 00:55:16;;;;;;;11.30;8.95;;;;;;;17.61;98.24;98939.28;1807340;79;21461;-50
2022/06/10 00:57:45;;;;;;;13.83;10.15;;;;;;;17.57;98.15;98939.69;1807125;79;21477;-50
2022/06/10 01:00:16;;;;;;;11.88;9.65;;;;;;;17.60;97.43;98937.59;1807178;79;21039;-49
2022/06/10 01:02:43;;;;;;;16.48;9.93;;;;;;;17.58;97.25;98930.25;1807174;79;20975;-51
2022/06/10 01:05:14;;;;;;;13.35;10.13;;;;;;;17.53;97.70;98936.46;1807350;79;20960;-55
2022/06/10 01:07:54;;;;;;;14.20;10.82;;;;;;;17.50;98.53;98940.75;1803463;79;20982;-49
2022/06/10 01:10:21;;;;;;;13.72;10.30;;;;;;;17.49;98.00;98935.06;1806153;78;20947;-49
2022/06/10 01:13:18;;;;;;;11.90;10.23;;;;;;;17.47;98.87;98934.37;1807447;79;21022;-53
2022/06/10 01:15:54;;;;;;;13.88;10.75;;;;;;;17.49;98.19;98929.75;1807347;79;20984;-51
2022/06/10 01:18:42;;;;;;;12.43;9.70;;;;;;;17.45;99.28;98933.67;1784728;79;20951;-44
2022/06/10 01:21:22;;;;;;;13.85;10.43;;;;;;;17.42;99.48;98935.27;1806908;79;21034;-43
2022/06/10 01:24:23;;;;;;;19.25;11.28;;;;;;;17.41;99.40;98935.76;1804849;79;21429;-53
2022/06/10 01:30:05;;;;;;;18.55;10.13;;;;;;;17.36;99.64;98931.84;1792528;79;20991;-52
2022/06/10 01:32:45;;;;;;;13.35;10.45;;;;;;;17.37;99.39;98936.16;1760116;79;21453;-44
2022/06/10 01:35:29;;;;;;;15.50;11.22;;;;;;;17.41;99.00;98929.61;1807046;79;21587;-51
2022/06/10 01:38:06;;;;;;;13.32;10.38;;;;;;;17.41;99.37;98937.59;1806974;79;20975;-50
2022/06/10 01:40:53;;;;;;;;;;;;;;;17.41;99.05;98934.92;1802761;79;21031;-48
2022/06/10 01:43:30;;;;;;;16.40;10.72;;;;;;;17.41;98.95;98938.91;1805256;79;20102;-52
2022/06/10 01:46:12;;;;;;;;;;;;;;;17.41;99.29;98938.42;1809131;79;20974;-49
2022/06/10 01:48:49;;;;;;;19.60;12.55;;;;;;;17.37;99.62;98937.48;1812644;79;20512;-51
2022/06/10 01:51:29;;;;;;;14.38;11.88;;;;;;;17.33;98.98;98945.39;1817298;79;21192;-45
2022/06/10 01:54:06;;;;;;;13.65;12.00;;;;;;;17.26;99.84;98950.39;1815617;79;21033;-52
2022/06/10 01:56:35;;;;;;;;;;;;;;;17.23;98.80;98948.03;1820032;79;21425;-57
2022/06/10 01:59:12;;;;;;;14.47;11.57;;;;;;;17.13;100.00;98946.66;1817250;79;20475;-50
2022/06/10 02:01:43;;;;;;;14.35;11.75;;;;;;;17.11;99.11;98952.59;1817461;79;21029;-50
2022/06/10 02:04:29;;;;;;;16.42;11.83;;;;;;;17.07;99.99;98960.48;1817441;79;21707;-49
2022/06/10 02:07:03;;;;;;;14.33;11.68;;;;;;;17.09;99.46;98971.81;1817945;79;21015;-50
2022/06/10 02:09:37;;;;;;;16.20;12.45;;;;;;;17.09;100.00;98967.83;1817401;79;21038;-49
2022/06/10 02:12:09;;;;;;;25.05;12.95;;;;;;;17.05;100.00;98970.41;1817469;79;20991;-49
2022/06/10 02:14:39;;;;;;;18.37;12.85;;;;;;;17.05;100.00;98970.41;1817368;79;21022;-51
2022/06/10 02:17:07;;;;;;;17.73;12.10;;;;;;;17.02;100.00;98974.66;1817391;79;21021;-55
2022/06/10 02:19:45;;;;;;;17.32;13.22;;;;;;;17.02;99.25;98977.31;1817374;79;21483;-50
2022/06/10 02:22:20;;;;;;;;;;;;;;;17.00;100.00;98972.63;1820128;79;21019;-46
2022/06/10 02:24:54;;;;;;;14.18;11.38;;;;;;;16.96;99.80;98968.56;1817114;79;20134;-46
2022/06/10 02:27:26;;;;;;;17.37;12.65;;;;;;;16.95;99.17;98971.68;1817383;79;20983;-47
2022/06/10 02:30:20;;;;;;;18.30;13.00;;;;;;;16.96;99.91;98972.55;1817475;79;20990;-51
2022/06/10 02:32:47;;;;;;;17.57;12.43;;;;;;;16.95;98.97;98982.80;1817405;79;21022;-50
2022/06/10 02:35:16;;;;;;;16.80;11.48;;;;;;;16.95;98.86;98989.44;1817541;79;21033;-47
2022/06/10 02:38:09;;;;;;;17.37;12.20;;;;;;;16.96;99.61;98989.31;1817308;79;21021;-45
2022/06/10 02:43:38;;;;;;;14.90;10.65;;;;;;;16.99;98.99;98993.50;1697304;82;21146;-49
2022/06/10 02:46:22;;;;;;;17.35;11.63;;;;;;;16.95;98.51;98996.91;1733877;83;21609;-45
2022/06/10 02:49:07;;;;;;;14.87;10.50;;;;;;;16.93;99.40;98995.37;1733595;81;20967;-47
2022/06/10 02:51:35;;;;;;;20.48;11.25;;;;;;;16.84;99.93;98996.51;1733962;82;21079;-51
2022/06/10 02:54:05;;;;;;;18.77;11.40;;;;;;;16.83;100.00;98994.84;1734397;82;21471;-49
2022/06/10 02:56:31;;;;;;;14.65;11.48;;;;;;;16.84;99.93;99004.48;1734367;82;20987;-50
2022/06/10 03:02:07;;;;;;;19.27;10.80;;;;;;;16.93;99.69;99012.64;1734426;83;20986;-48
2022/06/10 03:05:06;;;;;;;17.95;10.23;;;;;;;16.95;99.29;99017.33;1734231;83;21003;-49
2022/06/10 03:08:01;;;;;;;15.30;10.53;;;;;;;16.92;99.90;99018.45;1734288;82;21014;-50
2022/06/10 03:10:38;;;;;;;15.60;10.80;;;;;;;16.94;99.41;99020.98;1733812;83;21065;-49
2022/06/10 03:13:21;;;;;;;12.20;9.98;;;;;;;16.95;98.90;99019.48;1700556;83;21006;-48
2022/06/10 03:16:10;;;;;;;13.83;10.80;;;;;;;16.94;98.54;99018.32;1734280;82;21010;-51
2022/06/10 03:19:01;;;;;;;14.55;10.40;;;;;;;16.93;98.72;99028.08;1734269;82;21022;-51
2022/06/10 03:21:35;;;;;;;14.00;11.28;;;;;;;16.92;98.97;99028.20;1734430;82;21049;-51
2022/06/10 03:24:20;;;;;;;16.35;11.80;;;;;;;16.89;99.70;99029.33;1732208;83;21015;-47
2022/06/10 03:26:54;;;;;;;16.15;11.78;;;;;;;16.92;100.00;99026.88;1733169;83;21050;-48
2022/06/10 03:29:47;;;;;;;17.40;11.53;;;;;;;16.94;99.11;99035.09;1733155;83;20998;-48
2022/06/10 03:32:21;;;;;;;17.45;11.75;;;;;;;16.93;99.42;99039.20;1734269;82;21010;-48
2022/06/10 03:34:52;;;;;;;14.53;10.65;;;;;;;16.92;99.53;99039.70;1734003;83;20995;-48
2022/06/10 03:37:18;;;;;;;15.20;10.75;;;;;;;16.92;99.27;99043.68;1705301;83;20983;-49
2022/06/10 03:39:54;;;;;;;15.80;10.83;;;;;;;16.96;98.75;99050.90;1734471;83;21042;-48
2022/06/10 03:42:22;;;;;;;12.85;10.48;;;;;;;16.97;99.12;99053.89;1733807;83;21734;-51
2022/06/10 03:44:53;;;;;;;13.25;10.40;;;;;;;16.98;98.63;99056.42;1734179;82;20983;-49
2022/06/10 03:47:25;;;;;;;11.93;9.83;;;;;;;16.96;98.79;99057.05;1734422;82;21010;-50
2022/06/10 03:50:08;;;;;;;11.60;9.80;;;;;;;16.97;98.81;99061.86;1733509;83;21054;-49
2022/06/10 03:52:37;;;;;;;13.95;9.55;;;;;;;16.95;99.62;99063.31;1705438;83;21032;-49
2022/06/10 03:55:08;;;;;;;13.58;9.50;;;;;;;16.99;99.58;99074.52;1734459;82;21045;-50
2022/06/10 03:57:34;;;;;;;13.83;8.95;;;;;;;17.02;99.45;99075.59;1734370;83;21010;-48
2022/06/10 04:00:00;;;;;;;11.35;9.03;;;;;;;17.04;99.12;99082.45;1734507;83;21006;-47
2022/06/10 04:02:26;;;;;;;11.10;8.13;;;;;;;17.06;98.68;99079.67;1734589;83;21013;-49
2022/06/10 04:04:52;;;;;;;12.33;8.43;;;;;;;17.07;99.46;99086.19;1734577;82;21014;-49
2022/06/10 04:07:20;;;;;;;9.63;8.20;;;;;;;17.06;99.50;99087.64;1734344;83;20998;-50
2022/06/10 04:09:46;;;;;;;;;;;;;;;17.08;99.89;99089.67;1736996;83;21033;-47
2022/06/10 04:12:12;;;;;;;9.87;7.43;;;;;;;17.06;99.13;99087.64;1734682;83;20137;-52
2022/06/10 04:14:38;;;;;;;9.80;7.80;;;;;;;17.11;99.41;99094.73;1734412;82;21491;-50
2022/06/10 04:17:05;;;;;;;11.00;8.10;;;;;;;17.09;99.26;99099.34;1734451;83;21464;-49
2022/06/10 04:19:30;;;;;;;13.70;7.30;;;;;;;17.04;99.02;99099.72;1734514;82;21055;-49
2022/06/10 04:21:56;;;;;;;8.75;7.55;;;;;;;17.04;99.41;99102.37;1734280;83;21031;-48
2022/06/10 04:24:22;;;;;;;9.20;7.55;;;;;;;17.04;99.77;99113.50;1734363;83;21010;-51
2022/06/10 04:26:48;;;;;;;8.73;7.65;;;;;;;17.04;99.77;99113.50;1734365;83;21010;-48
2022/06/10 04:29:16;;;;;;;9.43;7.92;;;;;;;17.07;99.76;99122.55;1734353;83;21014;-50
2022/06/10 04:31:41;;;;;;;;;;;;;;;17.02;100.00;99123.41;1736991;83;20979;-50
2022/06/10 04:34:08;;;;;;;9.38;6.83;;;;;;;16.96;100.00;99129.26;1734336;83;20116;-51
2022/06/10 04:36:35;;;;;;;8.43;7.30;;;;;;;16.99;100.00;99134.29;1734584;82;21006;-51
2022/06/10 04:39:01;;;;;;;9.45;6.92;;;;;;;17.03;100.00;99137.06;1734398;83;21058;-51
2022/06/10 04:41:26;;;;;;;8.35;6.78;;;;;;;17.06;100.00;99138.11;1734386;83;21059;-51
2022/06/10 04:43:52;;;;;;;8.30;6.40;;;;;;;17.10;100.00;99136.91;1721765;81;21046;-49
2022/06/10 04:46:26;;;;;;;8.90;7.22;;;;;;;17.17;100.00;99143.84;1734091;82;20967;-49
2022/06/10 04:48:52;;;;;;;10.95;7.00;;;;;;;17.14;100.00;99144.97;1733245;83;21038;-53
2022/06/10 04:51:18;;;;;;;9.35;7.00;;;;;;;17.17;100.00;99147.37;1733856;83;21006;-50
2022/06/10 04:53:44;;;;;;;9.00;6.70;;;;;;;17.23;100.00;99149.49;1733929;83;21033;-48
2022/06/10 04:56:10;;;;;;;7.67;6.97;;;;;;;17.22;100.00;99147.80;1733891;83;21515;-48
2022/06/10 04:58:36;;;;;;;9.65;7.08;;;;;;;17.32;100.00;99149.20;1734012;83;21496;-48
2022/06/10 05:01:02;;;;;;;8.75;6.92;;;;;;;17.38;100.00;99147.83;1733907;83;21456;-52
2022/06/10 05:03:28;;;;;;;8.60;7.10;;;;;;;17.35;100.00;99151.57;1733820;83;21038;-51
2022/06/10 05:05:53;;;;;;;8.18;6.80;;;;;;;17.43;100.00;99146.95;1733966;83;21476;-50
2022/06/10 05:08:19;;;;;;;9.15;6.87;;;;;;;17.47;100.00;99155.01;1733862;83;21511;-51
2022/06/10 05:10:47;;;;;;;10.43;6.87;;;;;;;17.56;100.00;99158.20;1733961;83;21483;-50
2022/06/10 05:13:20;;;;;;;7.83;7.03;;;;;;;17.60;100.00;99163.59;1733887;83;21057;-50
2022/06/10 05:15:46;;;;;;;7.22;6.37;;;;;;;17.64;100.00;99162.37;1733763;83;20967;-48
2022/06/10 05:18:16;;;;;;;8.80;6.95;;;;;;;17.72;100.00;99159.52;1734231;83;20998;-48
2022/06/10 05:20:43;;;;;;;8.90;6.80;;;;;;;17.78;99.67;99169.14;1733933;83;20967;-50
2022/06/10 05:23:12;;;;;;;11.28;6.85;;;;;;;17.84;99.68;99170.41;1734063;83;21002;-48
2022/06/10 05:25:39;;;;;;;7.12;6.42;;;;;;;17.90;99.35;99176.58;1733802;83;21050;-50
2022/06/10 05:28:06;;;;;;;7.15;5.85;;;;;;;17.96;99.16;99181.84;1734085;83;20995;-52
2022/06/10 05:30:34;;;;;;;7.62;6.28;;;;;;;17.86;98.86;99185.78;1733915;83;21450;-49
2022/06/10 05:33:02;;;;;;;7.78;6.28;;;;;;;17.95;98.51;99184.97;1733825;83;21034;-50
2022/06/10 05:35:29;;;;;;;9.45;5.80;;;;;;;17.99;98.69;99182.42;1733821;83;20971;-51
2022/06/10 05:37:55;;;;;;;9.78;6.55;;;;;;;17.93;98.56;99192.75;1734040;83;21508;-49
2022/06/10 05:40:24;;;;;;;8.75;6.78;;;;;;;17.94;98.37;99194.45;1733870;83;21011;-49
2022/06/10 05:42:51;;;;;;;10.25;6.75;;;;;;;18.01;98.67;99196.92;1731610;82;21500;-48
2022/06/10 05:45:19;;;;;;;13.87;6.60;;;;;;;18.00;98.39;99200.55;1729178;83;21034;-51
2022/06/10 05:47:48;;;;;;;10.13;6.87;;;;;;;18.07;98.54;99208.34;1728949;83;21512;-49
2022/06/10 05:50:19;;;;;;;10.50;6.65;;;;;;;18.08;98.45;99207.85;1728998;83;20995;-51
2022/06/10 05:52:45;;;;;;;10.90;6.83;;;;;;;18.14;98.00;99205.50;1728330;83;21002;-49
2022/06/10 05:55:11;;;;;;;8.93;6.12;;;;;;;18.23;97.61;99211.84;1728862;83;21342;-49
2022/06/10 05:57:39;;;;;;;7.25;6.22;;;;;;;18.25;96.92;99209.88;1729204;83;21006;-53
2022/06/10 06:00:19;;;;;;;8.65;5.83;;;;;;;18.29;97.24;99212.61;1728963;83;21010;-50
2022/06/10 06:02:45;;;;;;;7.33;6.33;;;;;;;18.31;96.85;99209.33;1727449;83;20987;-51
2022/06/10 06:05:12;;;;;;;7.53;6.33;;;;;;;18.30;96.57;99222.30;1728872;83;21035;-51
2022/06/10 06:07:40;;;;;;;8.50;5.85;;;;;;;18.32;96.48;99225.66;1729123;83;21054;-47
2022/06/10 06:10:07;;;;;;;6.60;5.92;;;;;;;18.27;95.77;99233.70;1728868;83;21484;-49
2022/06/10 06:12:34;;;;;;;9.40;5.70;;;;;;;18.25;95.59;99236.50;1728853;83;21524;-52
2022/06/10 06:15:00;;;;;;;9.65;5.80;;;;;;;18.23;95.90;99239.78;1728875;83;21038;-49
2022/06/10 06:17:25;;;;;;;8.43;5.60;;;;;;;18.29;95.57;99237.91;1728843;83;21050;-48
2022/06/10 06:19:51;;;;;;;9.50;6.37;;;;;;;18.23;95.71;99239.78;1728858;83;21002;-52
2022/06/10 06:22:17;;;;;;;9.73;5.85;;;;;;;18.20;95.52;99244.04;1728836;83;21058;-51
2022/06/10 06:24:43;;;;;;;6.42;5.83;;;;;;;18.23;95.58;99253.09;1728808;83;21007;-51
2022/06/10 06:27:14;;;;;;;7.28;6.03;;;;;;;18.19;95.27;99252.98;1728884;83;20978;-49
2022/06/10 06:29:41;;;;;;;6.80;5.42;;;;;;;18.09;95.99;99250.80;1728862;83;21018;-49
2022/06/10 06:32:08;;;;;;;8.48;5.97;;;;;;;18.11;95.52;99252.83;1729028;83;20959;-49
2022/06/10 06:34:34;;;;;;;10.45;6.75;;;;;;;18.05;95.98;99260.03;1728992;83;21484;-50
2022/06/10 06:37:00;;;;;;;8.15;6.22;;;;;;;18.10;96.08;99267.10;1728867;83;21010;-48
2022/06/10 06:39:27;;;;;;;6.75;6.15;;;;;;;18.09;95.84;99269.42;1728849;83;20999;-49
2022/06/10 06:41:55;;;;;;;9.98;6.85;;;;;;;18.04;96.24;99267.15;1729000;83;21011;-51
2022/06/10 06:44:21;;;;;;;8.30;7.05;;;;;;;17.98;96.32;99273.02;1728781;82;21098;-50
2022/06/10 06:46:48;;;;;;;10.60;8.00;;;;;;;17.92;96.58;99273.52;1729127;83;20999;-51
2022/06/10 06:49:21;;;;;;;10.75;8.35;;;;;;;17.90;97.34;99275.48;1729018;83;21006;-51
2022/06/10 06:51:49;;;;;;;9.65;7.90;;;;;;;17.86;97.73;99280.22;1728848;83;21650;-49
2022/06/10 06:54:15;;;;;;;;;;;;;;;17.80;98.20;99280.72;1731595;83;20967;-52
2022/06/10 06:56:41;;;;;;;10.50;9.23;;;;;;;17.87;98.15;99284.58;1728984;83;20438;-52
2022/06/10 06:59:07;;;;;;;11.43;9.03;;;;;;;17.90;97.39;99289.64;1702073;83;21010;-51
2022/06/10 07:01:33;;;;;;;13.58;9.15;;;;;;;17.98;97.13;99289.81;1728843;83;21035;-52
2022/06/10 07:03:59;;;;;;;10.23;9.13;;;;;;;18.05;97.33;99289.30;1728828;83;21036;-52
2022/06/10 07:06:25;;;;;;;13.50;9.48;;;;;;;18.11;97.13;99292.75;1728828;83;21007;-53
2022/06/10 07:08:51;;;;;;;13.28;9.08;;;;;;;18.19;97.39;99298.23;1728830;83;20971;-50
2022/06/10 07:11:17;;;;;;;14.45;9.50;;;;;;;18.17;97.55;99299.72;1728843;83;20995;-50
2022/06/10 07:13:43;;;;;;;15.03;10.70;;;;;;;18.21;97.03;99301.14;1728880;83;21057;-51
2022/06/10 07:16:10;;;;;;;16.48;10.13;;;;;;;18.27;97.19;99298.42;1728857;83;20994;-52
2022/06/10 07:18:37;;;;;;;16.23;11.40;;;;;;;18.33;95.99;99301.87;1729001;83;21597;-51
2022/06/10 07:21:04;;;;;;;17.02;10.82;;;;;;;18.31;95.89;99305.66;1729179;83;21002;-51
2022/06/10 07:23:30;;;;;;;14.00;11.73;;;;;;;18.34;95.84;99304.90;1729297;83;20967;-49
2022/06/10 07:25:58;;;;;;;16.12;12.03;;;;;;;18.38;95.69;99305.47;1729065;83;21312;-49
2022/06/10 07:28:24;;;;;;;19.52;13.05;;;;;;;18.37;95.52;99315.75;1729005;83;21010;-49
2022/06/10 07:30:49;;;;;;;14.93;11.78;;;;;;;18.41;95.27;99311.88;1728967;83;21147;-50
2022/06/10 07:33:16;;;;;;;14.87;11.97;;;;;;;18.48;95.47;99314.81;1729089;83;21003;-49
2022/06/10 07:35:42;;;;;;;16.73;11.95;;;;;;;18.42;95.25;99316.20;1729129;83;21152;-49
2022/06/10 07:38:09;;;;;;;18.77;13.43;;;;;;;18.44;94.81;99314.24;1728956;83;21062;-51
2022/06/10 07:43:23;;;;;;;18.23;14.55;;;;;;;18.23;96.11;99327.63;1728895;82;20471;-51
2022/06/10 07:45:51;;;;;;;20.20;15.13;;;;;;;18.19;96.22;99324.84;1729192;83;21495;-51
2022/06/10 07:48:17;;;;;;;18.10;15.08;;;;;;;18.23;95.87;99329.79;1729169;83;20971;-47
2022/06/10 07:50:45;;;;;;;20.43;15.38;;;;;;;18.19;95.31;99332.37;1729184;83;21484;-51
2022/06/10 07:53:12;;;;;;;19.90;15.05;;;;;;;18.12;96.23;99339.66;1729000;83;21041;-50
2022/06/10 07:55:39;;;;;;;19.57;16.52;;;;;;;18.10;96.03;99334.49;1729133;83;21457;-51
2022/06/10 07:58:06;;;;;;;18.05;15.45;;;;;;;18.11;95.79;99340.65;1728955;83;21046;-47
2022/06/10 08:00:34;;;;;;;22.17;15.80;;;;;;;18.11;95.69;99348.64;1728941;83;21010;-52
2022/06/10 08:03:01;;;;;;;17.17;15.00;;;;;;;18.06;95.94;99351.67;1728909;83;21049;-48
2022/06/10 08:05:27;;;;;;;17.50;14.60;;;;;;;18.05;95.57;99351.83;1729231;83;20983;-55
2022/06/10 08:07:53;;;;;;;22.20;14.87;;;;;;;17.95;95.91;99356.58;1728971;83;21010;-52
2022/06/10 08:10:24;;;;;;;17.40;12.88;;;;;;;17.89;96.07;99360.27;1728925;83;21046;-55
2022/06/10 08:12:50;;;;;;;15.95;12.53;;;;;;;17.88;95.94;99366.05;1726941;83;20944;-54
2022/06/10 08:15:17;;;;;;;16.25;13.10;;;;;;;17.75;95.90;99369.37;1728721;83;21022;-56
2022/06/10 08:17:43;;;;;;;18.82;12.47;;;;;;;17.72;96.54;99370.94;1728794;83;21753;-58
2022/06/10 08:20:21;;;;;;;14.17;10.40;;;;;;;17.67;96.44;99367.36;1728907;83;21041;-55
2022/06/10 08:22:47;;;;;;;15.55;11.70;;;;;;;17.58;96.71;99372.95;1728673;83;21050;-54
2022/06/10 08:25:16;;;;;;;13.35;10.35;;;;;;;17.64;96.43;99373.79;1728775;83;21368;-56
2022/06/10 08:27:42;;;;;;;15.60;10.43;;;;;;;17.69;95.71;99374.72;1728286;83;21022;-56
2022/06/10 08:30:12;;;;;;;17.57;11.70;;;;;;;17.65;95.96;99384.77;1728820;83;21009;-56
2022/06/10 08:32:38;;;;;;;35.00;13.72;;;;;;;17.68;95.79;99390.80;1728828;83;21131;-54
2022/06/10 08:35:06;;;;;;;15.68;11.38;;;;;;;17.72;95.77;99393.09;1728588;83;21539;-54
2022/06/10 08:37:32;;;;;;;14.85;12.15;;;;;;;17.62;95.80;99389.00;1728667;83;20999;-59
2022/06/10 08:39:58;;;;;;;13.58;11.78;;;;;;;17.67;95.97;99393.12;1728577;83;21091;-53
2022/06/10 08:42:39;;;;;;;14.35;11.97;;;;;;;17.62;95.67;99392.98;1728825;83;21007;-53
2022/06/10 08:45:48;;;;;;;19.37;11.63;;;;;;;17.57;95.12;99400.53;1728594;82;21038;-57
2022/06/10 08:48:31;;;;;;;14.43;11.90;;;;;;;17.48;95.76;99405.25;1728347;83;20979;-52
2022/06/10 08:51:11;;;;;;;16.05;11.35;;;;;;;17.43;95.29;99404.81;1728660;83;20982;-59
2022/06/10 08:53:59;;;;;;;18.57;11.88;;;;;;;17.36;96.04;99410.27;1728784;83;21042;-56
2022/06/10 08:56:40;;;;;;;23.73;13.68;;;;;;;17.36;95.92;99407.61;1728461;83;21001;-55
2022/06/10 08:59:30;;;;;;;18.55;12.35;;;;;;;17.29;96.50;99409.08;1702392;83;21503;-58
2022/06/10 09:02:14;;;;;;;18.37;12.73;;;;;;;17.07;97.53;99410.80;1702030;83;21010;-58
2022/06/10 09:05:07;;;;;;;18.77;13.10;;;;;;;17.10;97.77;99414.55;1728864;83;21046;-53
2022/06/10 09:08:01;;;;;;;20.62;12.95;;;;;;;17.15;97.54;99418.16;1728644;83;21014;-55
2022/06/10 09:10:45;;;;;;;15.38;12.43;;;;;;;17.23;97.00;99419.23;1728587;83;20998;-60
2022/06/10 09:13:39;;;;;;;15.30;11.68;;;;;;;17.11;97.07;99426.86;1728473;83;20998;-55
2022/06/10 09:16:22;;;;;;;13.25;11.22;;;;;;;17.13;96.50;99429.39;1728867;83;21003;-56
2022/06/10 09:19:08;;;;;;;13.15;9.48;;;;;;;17.11;96.48;99440.14;1728382;83;21508;-55
2022/06/10 09:21:48;;;;;;;13.57;10.63;;;;;;;17.08;96.57;99431.95;1728905;83;21023;-53
2022/06/10 09:24:37;;;;;;;13.45;10.60;;;;;;;17.10;96.38;99439.80;1728345;83;21848;-56
2022/06/10 09:27:17;;;;;;;15.00;9.78;;;;;;;17.17;96.14;99444.11;1727553;83;21575;-54
2022/06/10 09:29:43;;;;;;;15.53;10.30;;;;;;;17.15;95.56;99454.86;1728753;83;21002;-56
2022/06/10 09:32:17;;;;;;;15.85;9.20;;;;;;;17.02;95.57;99458.98;1710480;83;21062;-54
2022/06/10 09:35:08;;;;;;;11.33;8.28;;;;;;;17.09;95.30;99459.35;1699209;84;20986;-57
2022/06/10 09:37:55;;;;;;;12.15;7.95;;;;;;;17.02;95.41;99466.12;1699311;84;21006;-59
2022/06/10 09:40:37;;;;;;;12.13;7.97;;;;;;;17.04;95.14;99465.51;1700048;84;21041;-59
2022/06/10 09:43:43;;;;;;;8.25;7.33;;;;;;;17.01;95.43;99465.77;1712802;82;21034;-58
2022/06/10 09:46:44;;;;;;;17.52;8.53;;;;;;;17.07;95.49;99469.26;1734139;83;21026;-59
2022/06/10 09:49:22;;;;;;;10.75;7.58;;;;;;;17.06;95.41;99467.55;1734733;82;21006;-57
2022/06/10 09:52:00;;;;;;;;;;;;;;;17.02;95.28;99466.95;1736010;83;21492;-57
2022/06/10 09:54:37;;;;;;;10.23;9.15;;;;;;;16.98;95.55;99476.63;1734813;83;20097;-59
2022/06/10 09:57:27;;;;;;;17.05;10.38;;;;;;;17.12;94.88;99468.41;1733811;82;21010;-56
2022/06/10 09:59:58;;;;;;;13.70;9.55;;;;;;;17.15;94.84;99474.80;1734506;82;21508;-55
2022/06/10 10:02:47;;;;;;;16.27;9.00;;;;;;;17.14;94.52;99471.79;1734184;83;21034;-57
2022/06/10 10:05:31;;;;;;;20.77;9.40;;;;;;;17.15;94.38;99473.46;1734170;82;20986;-59
2022/06/10 10:08:23;;;;;;;16.42;9.23;;;;;;;17.16;94.18;99471.18;1734036;82;20978;-57
2022/06/10 10:11:23;;;;;;;12.25;8.70;;;;;;;17.23;94.70;99476.86;1734026;82;20993;-56
2022/06/10 10:13:57;;;;;;;8.85;7.95;;;;;;;17.29;94.26;99480.84;1733838;83;20967;-58
2022/06/10 10:16:31;;;;;;;9.03;7.92;;;;;;;17.24;93.56;99479.37;1734113;81;20985;-56
2022/06/10 10:19:20;;;;;;;11.40;9.05;;;;;;;17.29;93.73;99479.51;1729427;82;21019;-56
2022/06/10 10:22:14;;;;;;;9.78;7.28;;;;;;;17.39;93.09;99477.78;1739505;82;21035;-61
2022/06/10 10:24:44;;;;;;;10.08;7.00;;;;;;;17.46;93.19;99478.97;1739166;82;21010;-56
2022/06/10 10:27:24;;;;;;;10.23;7.58;;;;;;;17.54;92.47;99488.52;1739439;82;21016;-55
2022/06/10 10:29:56;;;;;;;8.98;6.85;;;;;;;17.61;92.26;99485.72;1736024;82;20999;-56
2022/06/10 10:32:29;;;;;;;11.10;7.58;;;;;;;17.60;91.53;99484.02;1739363;81;21520;-56
2022/06/10 10:35:05;;;;;;;13.58;6.80;;;;;;;17.61;91.48;99483.55;1739293;81;21047;-56
2022/06/10 10:37:37;;;;;;;10.93;7.60;;;;;;;17.72;91.87;99487.50;1738690;82;20987;-53
2022/06/10 10:40:16;;;;;;;9.23;7.53;;;;;;;17.86;91.78;99487.71;1739236;82;21039;-55
2022/06/10 10:42:46;;;;;;;9.68;7.40;;;;;;;17.95;90.90;99486.95;1739424;82;21043;-58
2022/06/10 10:45:36;;;;;;;9.53;7.03;;;;;;;18.13;90.14;99486.41;1757590;81;21006;-55
2022/06/10 10:48:25;;;;;;;7.87;7.10;;;;;;;18.44;90.50;99493.14;1774678;81;21033;-60
2022/06/10 10:50:59;;;;;;;8.88;7.00;;;;;;;18.62;88.35;99492.89;1775130;81;20966;-59
2022/06/10 10:53:58;;;;;;;7.10;6.35;;;;;;;18.82;86.56;99489.87;1772670;81;20986;-55
2022/06/10 10:56:36;;;;;;;10.50;6.53;;;;;;;19.15;85.85;99487.91;1773706;81;20943;-55
2022/06/10 10:59:02;;;;;;;8.75;5.92;;;;;;;19.41;85.49;99492.28;1746231;81;20993;-54
2022/06/10 11:01:46;;;;;;;11.40;5.80;;;;;;;19.62;84.04;99496.67;1775077;81;20989;-57
2022/06/10 11:04:29;;;;;;;6.37;5.78;;;;;;;19.69;83.29;99487.14;1774828;81;21006;-59
2022/06/10 11:07:13;;;;;;;12.50;5.72;;;;;;;19.61;82.73;99493.17;1774865;81;20981;-56
2022/06/10 11:09:53;;;;;;;9.58;5.85;;;;;;;19.61;82.73;99489.17;1774993;81;20985;-54
2022/06/10 11:12:23;;;;;;;8.75;5.70;;;;;;;19.68;82.84;99496.97;1774980;81;20962;-60
2022/06/10 11:14:59;;;;;;;9.83;6.40;;;;;;;19.76;81.92;99501.64;1746367;81;20994;-57
2022/06/10 11:17:26;;;;;;;8.53;6.58;;;;;;;20.01;81.80;99494.92;1775127;81;21522;-56
2022/06/10 11:20:03;;;;;;;9.68;5.95;;;;;;;20.17;80.08;99493.00;1775343;81;21009;-56
2022/06/10 11:22:35;;;;;;;8.60;5.70;;;;;;;20.25;79.03;99491.81;1768533;81;20978;-58
2022/06/10 11:25:14;;;;;;;6.55;5.87;;;;;;;20.36;79.20;99496.66;1774957;81;20978;-60
2022/06/10 11:27:41;;;;;;;8.07;6.03;;;;;;;20.72;78.91;99492.41;1774600;81;20963;-57
2022/06/10 11:30:16;;;;;;;20.68;6.40;;;;;;;20.89;78.65;99492.95;1774955;81;20985;-57
2022/06/10 11:33:07;;;;;;;8.30;5.25;;;;;;;21.36;76.53;99499.25;1774928;81;20978;-56
2022/06/10 11:35:41;;;;;;;6.53;5.58;;;;;;;22.07;76.57;99490.47;1774956;81;20985;-57
2022/06/10 11:38:24;;;;;;;6.53;5.40;;;;;;;22.64;72.12;99492.77;1721523;82;21013;-56
2022/06/10 11:40:57;;;;;;;6.50;5.58;;;;;;;22.85;71.10;99496.91;1736897;82;21578;-53
2022/06/10 11:43:35;;;;;;;7.90;4.87;;;;;;;23.05;71.40;99490.84;1736715;82;20994;-59
2022/06/10 11:46:29;;;;;;;5.50;4.90;;;;;;;23.51;69.05;99498.08;1735461;82;20990;-53
2022/06/10 11:49:12;;;;;;;9.30;6.05;;;;;;;23.45;67.56;99496.89;1736812;82;21495;-55
2022/06/10 11:51:50;;;;;;;11.18;5.08;;;;;;;23.29;68.21;99494.98;1736854;82;20954;-56
2022/06/10 11:54:59;;;;;;;6.58;5.08;;;;;;;23.71;67.80;99489.23;1736237;82;21030;-56
2022/06/10 12:00:43;;;;;;;6.30;5.50;;;;;;;24.05;60.82;99493.17;1736645;81;20998;-58
2022/06/10 12:03:44;;;;;;;5.40;4.80;;;;;;;23.73;63.58;99497.96;1736194;80;20958;-54
2022/06/10 12:06:31;;;;;;;6.55;4.92;;;;;;;23.65;64.14;99497.45;1736823;82;21034;-55
2022/06/10 12:09:09;;;;;;;6.47;5.00;;;;;;;23.87;61.97;99503.23;1737403;81;20997;-54
2022/06/10 12:11:58;;;;;;;6.90;4.75;;;;;;;24.08;61.38;99506.25;1734909;82;21515;-50